createdAt,value
2018-04-28T00:02:25.768Z,12.40
2018-04-28T00:04:54.091Z,12.40
2018-04-28T00:07:21.650Z,12.40
2018-04-28T00:09:49.281Z,12.40
2018-04-28T00:12:16.857Z,12.40
2018-04-28T00:14:44.409Z,12.40
2018-04-28T00:17:16.856Z,12.30
2018-04-28T00:19:50.008Z,12.30
2018-04-28T00:22:23.274Z,12.30
2018-04-28T00:24:55.340Z,12.20
2018-04-28T00:27:28.822Z,12.20
2018-04-28T00:29:58.168Z,12.20
2018-04-28T00:32:25.713Z,12.20
2018-04-28T00:34:55.060Z,12.20
2018-04-28T00:37:23.479Z,12.20
2018-04-28T00:39:54.876Z,12.20
2018-04-28T00:42:29.013Z,12.20
2018-04-28T00:44:57.410Z,12.10
2018-04-28T00:47:26.399Z,12.10
2018-04-28T00:50:06.516Z,12.00
2018-04-28T00:52:34.052Z,12.00
2018-04-28T00:58:06.951Z,11.80
2018-04-28T01:00:40.385Z,11.80
2018-04-28T01:03:07.988Z,11.80
2018-04-28T01:05:43.346Z,11.80
2018-04-28T01:08:10.912Z,11.80
2018-04-28T01:10:38.585Z,11.80
2018-04-28T01:13:10.064Z,11.90
2018-04-28T01:15:38.323Z,11.90
2018-04-28T01:18:05.879Z,11.90
2018-04-28T01:20:44.084Z,12.00
2018-04-28T01:23:11.636Z,12.10
2018-04-28T01:25:42.185Z,12.10
2018-04-28T01:28:10.579Z,12.00
2018-04-28T01:30:42.044Z,12.00
2018-04-28T01:33:30.322Z,11.90
2018-04-28T01:36:25.173Z,11.80
2018-04-28T01:42:24.065Z,11.70
2018-04-28T01:45:00.452Z,11.70
2018-04-28T01:47:42.892Z,11.60
2018-04-28T01:50:11.388Z,11.60
2018-04-28T01:52:39.740Z,11.50
2018-04-28T01:55:12.974Z,11.50
2018-04-28T01:57:52.977Z,11.40
2018-04-28T02:00:31.124Z,11.40
2018-04-28T02:03:07.412Z,11.40
2018-04-28T02:05:51.574Z,11.40
2018-04-28T02:08:19.201Z,11.40
2018-04-28T02:10:59.087Z,11.40
2018-04-28T02:13:46.513Z,11.40
2018-04-28T02:16:14.099Z,11.30
2018-04-28T02:19:04.167Z,11.30
2018-04-28T02:21:43.695Z,11.30
2018-04-28T02:27:11.791Z,11.20
2018-04-28T02:29:55.164Z,11.10
2018-04-28T02:32:28.478Z,11.10
2018-04-28T02:35:06.616Z,11.00
2018-04-28T02:37:39.600Z,11.00
2018-04-28T02:40:27.088Z,11.00
2018-04-28T02:42:59.079Z,11.00
2018-04-28T02:45:47.500Z,11.00
2018-04-28T02:48:26.686Z,11.00
2018-04-28T02:51:05.996Z,11.00
2018-04-28T02:53:35.113Z,11.00
2018-04-28T02:59:13.851Z,11.00
2018-04-28T03:01:58.940Z,11.00
2018-04-28T03:04:42.209Z,11.00
2018-04-28T03:07:17.489Z,10.90
2018-04-28T03:09:49.435Z,10.90
2018-04-28T03:12:19.931Z,10.90
2018-04-28T03:14:50.413Z,10.90
2018-04-28T03:17:22.782Z,10.90
2018-04-28T03:20:05.186Z,10.90
2018-04-28T03:22:34.383Z,10.80
2018-04-28T03:25:19.520Z,10.80
2018-04-28T03:27:50.834Z,10.70
2018-04-28T03:30:19.191Z,10.80
2018-04-28T03:32:47.707Z,10.60
2018-04-28T03:35:17.918Z,10.60
2018-04-28T03:38:02.251Z,10.60
2018-04-28T03:40:30.579Z,10.50
2018-04-28T03:42:58.993Z,10.50
2018-04-28T03:45:35.808Z,10.60
2018-04-28T03:51:17.921Z,10.60
2018-04-28T03:54:02.098Z,10.60
2018-04-28T03:56:40.288Z,10.60
2018-04-28T03:59:19.746Z,10.60
2018-04-28T04:01:58.999Z,10.70
2018-04-28T04:04:44.038Z,10.60
2018-04-28T04:07:20.382Z,10.60
2018-04-28T04:09:53.873Z,10.60
2018-04-28T04:12:55.911Z,10.70
2018-04-28T04:15:38.332Z,10.70
2018-04-28T04:18:13.670Z,10.70
2018-04-28T04:20:53.113Z,10.70
2018-04-28T04:23:38.310Z,10.40
2018-04-28T04:26:29.114Z,10.90
2018-04-28T04:29:12.170Z,10.90
2018-04-28T04:31:51.491Z,10.90
2018-04-28T04:34:45.588Z,11.00
2018-04-28T04:37:31.126Z,11.10
2018-04-28T04:40:07.971Z,11.10
2018-04-28T04:42:43.153Z,11.10
2018-04-28T04:45:15.311Z,11.40
2018-04-28T04:48:06.200Z,11.40
2018-04-28T04:50:55.321Z,11.40
2018-04-28T04:56:45.327Z,11.60
2018-04-28T04:59:23.688Z,11.60
2018-04-28T05:02:03.064Z,11.70
2018-04-28T05:07:35.283Z,11.90
2018-04-28T05:10:19.479Z,12.00
2018-04-28T05:12:54.873Z,12.30
2018-04-28T05:15:34.897Z,12.40
2018-04-28T05:18:15.099Z,12.80
2018-04-28T05:23:52.859Z,13.70
2018-04-28T05:26:42.067Z,14.50
2018-04-28T05:29:16.316Z,14.50
2018-04-28T05:31:51.735Z,15.30
2018-04-28T05:37:48.655Z,15.90
2018-04-28T05:40:18.600Z,16.70
2018-04-28T05:42:57.970Z,17.70
2018-04-28T05:45:37.265Z,18.20
2018-04-28T05:48:32.399Z,19.90
2018-04-28T05:51:06.600Z,19.90
2018-04-28T05:53:55.946Z,20.70
2018-04-28T05:56:29.875Z,21.70
2018-04-28T05:59:20.972Z,21.70
2018-04-28T06:01:52.829Z,22.30
2018-04-28T06:04:28.844Z,22.10
2018-04-28T06:07:08.370Z,22.10
2018-04-28T06:09:42.660Z,22.70
2018-04-28T06:12:28.435Z,23.30
2018-04-28T06:15:01.813Z,23.30
2018-04-28T06:17:41.132Z,22.90
2018-04-28T06:20:20.356Z,22.70
2018-04-28T06:22:47.973Z,21.70
2018-04-28T06:25:16.289Z,23.00
2018-04-28T06:27:43.851Z,22.90
2018-04-28T06:30:11.511Z,23.80
2018-04-28T06:32:39.110Z,24.20
2018-04-28T06:35:06.698Z,23.60
2018-04-28T06:37:35.036Z,24.20
2018-04-28T06:40:02.659Z,24.20
2018-04-28T06:42:30.230Z,24.20
2018-04-28T06:44:57.797Z,24.00
2018-04-28T06:47:25.340Z,23.80
2018-04-28T06:49:52.920Z,22.90
2018-04-28T06:52:20.555Z,22.80
2018-04-28T06:54:48.880Z,20.80
2018-04-28T06:57:16.452Z,20.80
2018-04-28T06:59:44.002Z,21.50
2018-04-28T07:02:11.588Z,22.60
2018-04-28T07:04:39.210Z,23.10
2018-04-28T07:07:06.740Z,22.90
2018-04-28T07:09:34.371Z,22.80
2018-04-28T07:12:01.988Z,22.60
2018-04-28T07:14:29.552Z,22.60
2018-04-28T07:16:57.151Z,23.10
2018-04-28T07:19:24.691Z,23.40
2018-04-28T07:21:52.270Z,23.20
2018-04-28T07:24:20.741Z,21.40
2018-04-28T07:26:48.308Z,20.20
2018-04-28T07:29:15.959Z,19.70
2018-04-28T07:31:44.221Z,18.80
2018-04-28T07:34:11.796Z,18.70
2018-04-28T07:36:39.345Z,17.90
2018-04-28T07:39:06.952Z,17.70
2018-04-28T07:41:34.523Z,17.60
2018-04-28T07:44:02.867Z,17.70
2018-04-28T07:46:30.472Z,17.60
2018-04-28T07:48:58.033Z,17.70
2018-04-28T07:51:26.380Z,17.00
2018-04-28T07:53:53.963Z,17.00
2018-04-28T07:56:21.519Z,16.30
2018-04-28T07:58:49.859Z,17.20
2018-04-28T08:01:17.437Z,17.20
2018-04-28T08:03:45.003Z,17.20
2018-04-28T08:06:12.629Z,17.00
2018-04-28T08:08:40.194Z,16.80
2018-04-28T08:11:07.787Z,17.10
2018-04-28T08:13:35.392Z,17.10
2018-04-28T08:16:02.941Z,17.20
2018-04-28T08:18:30.532Z,17.50
2018-04-28T08:20:58.118Z,17.50
2018-04-28T08:23:25.704Z,17.50
2018-04-28T08:25:54.100Z,17.60
2018-04-28T08:28:22.438Z,17.70
2018-04-28T08:30:50.069Z,17.60
2018-04-28T08:33:17.660Z,17.90
2018-04-28T08:35:45.280Z,18.10
2018-04-28T08:38:12.927Z,18.60
2018-04-28T08:40:40.486Z,18.90
2018-04-28T08:43:08.832Z,20.10
2018-04-28T08:45:36.397Z,20.10
2018-04-28T08:48:03.938Z,20.70
2018-04-28T08:50:31.530Z,21.10
2018-04-28T08:52:59.117Z,22.00
2018-04-28T08:55:27.521Z,20.80
2018-04-28T08:57:55.072Z,20.80
2018-04-28T09:00:30.284Z,22.10
2018-04-28T09:02:58.612Z,20.70
2018-04-28T09:05:26.767Z,20.60
2018-04-28T09:07:54.340Z,20.10
2018-04-28T09:10:21.934Z,19.60
2018-04-28T09:12:49.514Z,19.80
2018-04-28T09:15:17.964Z,19.50
2018-04-28T09:17:45.517Z,19.50
2018-04-28T09:20:13.076Z,19.70
2018-04-28T09:22:40.666Z,19.00
2018-04-28T09:25:08.264Z,18.50
2018-04-28T09:27:35.877Z,18.50
2018-04-28T09:30:04.280Z,18.20
2018-04-28T09:32:31.915Z,18.50
2018-04-28T09:34:59.526Z,19.00
2018-04-28T09:37:27.111Z,19.50
2018-04-28T09:39:54.702Z,19.90
2018-04-28T09:42:22.320Z,20.00
2018-04-28T09:44:49.896Z,20.00
2018-04-28T09:47:17.518Z,19.50
2018-04-28T09:49:45.893Z,19.00
2018-04-28T09:52:14.235Z,18.70
2018-04-28T09:54:41.841Z,18.70
2018-04-28T09:57:10.184Z,17.90
2018-04-28T09:59:37.764Z,17.80
2018-04-28T10:02:10.965Z,17.50
2018-04-28T10:04:39.327Z,19.80
2018-04-28T10:07:06.924Z,19.80
2018-04-28T10:09:35.342Z,20.30
2018-04-28T10:12:02.923Z,20.30
2018-04-28T10:14:30.527Z,19.70
2018-04-28T10:16:58.122Z,19.60
2018-04-28T10:19:25.710Z,20.30
2018-04-28T10:21:53.288Z,20.60
2018-04-28T10:24:20.925Z,20.40
2018-04-28T10:26:48.492Z,20.20
2018-04-28T10:29:16.205Z,19.60
2018-04-28T10:31:43.696Z,19.60
2018-04-28T10:34:11.284Z,19.90
2018-04-28T10:36:38.875Z,20.00
2018-04-28T10:39:08.124Z,19.60
2018-04-28T10:41:35.683Z,19.60
2018-04-28T10:44:03.297Z,19.10
2018-04-28T10:46:31.672Z,19.40
2018-04-28T10:49:00.063Z,19.20
2018-04-28T10:51:27.644Z,19.20
2018-04-28T10:53:55.430Z,19.30
2018-04-28T10:56:22.784Z,19.30
2018-04-28T10:58:50.359Z,19.20
2018-04-28T11:01:17.992Z,18.70
2018-04-28T11:03:45.555Z,18.60
2018-04-28T11:06:13.298Z,18.70
2018-04-28T11:08:41.618Z,18.80
2018-04-28T11:11:09.207Z,18.80
2018-04-28T11:13:37.536Z,18.40
2018-04-28T11:16:05.133Z,18.40
2018-04-28T11:18:32.692Z,19.00
2018-04-28T11:21:00.286Z,19.40
2018-04-28T11:23:28.641Z,19.40
2018-04-28T11:25:56.237Z,19.40
2018-04-28T11:28:24.572Z,19.10
2018-04-28T11:30:52.188Z,19.10
2018-04-28T11:33:19.781Z,19.20
2018-04-28T11:35:47.409Z,19.20
2018-04-28T11:38:14.972Z,19.60
2018-04-28T11:40:42.550Z,19.50
2018-04-28T11:43:10.136Z,19.80
2018-04-28T11:45:37.726Z,20.80
2018-04-28T11:48:05.285Z,20.70
2018-04-28T11:50:33.660Z,20.70
2018-04-28T11:53:01.252Z,20.70
2018-04-28T11:55:29.572Z,20.30
2018-04-28T11:57:57.164Z,20.40
2018-04-28T12:00:24.759Z,20.30
2018-04-28T12:02:52.328Z,20.00
2018-04-28T12:05:19.911Z,20.10
2018-04-28T12:07:47.487Z,19.70
2018-04-28T12:10:15.070Z,19.80
2018-04-28T12:12:43.488Z,20.40
2018-04-28T12:15:11.007Z,20.40
2018-04-28T12:17:39.344Z,21.20
2018-04-28T12:20:06.964Z,21.10
2018-04-28T12:22:35.288Z,20.10
2018-04-28T12:25:02.879Z,20.10
2018-04-28T12:27:30.442Z,19.70
2018-04-28T12:29:58.109Z,19.40
2018-04-28T12:32:26.384Z,19.00
2018-04-28T12:34:53.991Z,19.00
2018-04-28T12:37:21.534Z,19.40
2018-04-28T12:39:49.235Z,19.20
2018-04-28T12:42:16.803Z,19.30
2018-04-28T12:44:44.375Z,18.80
2018-04-28T12:47:12.037Z,18.90
2018-04-28T12:49:39.628Z,18.90
2018-04-28T12:52:07.232Z,19.00
2018-04-28T12:54:34.787Z,18.90
2018-04-28T12:57:02.429Z,19.00
2018-04-28T12:59:30.005Z,19.30
2018-04-28T13:01:57.595Z,19.30
2018-04-28T13:04:25.202Z,19.20
2018-04-28T13:06:53.678Z,19.60
2018-04-28T13:09:21.218Z,19.60
2018-04-28T13:11:48.800Z,19.80
2018-04-28T13:14:17.160Z,19.90
2018-04-28T13:16:44.745Z,19.90
2018-04-28T13:19:13.121Z,19.30
2018-04-28T13:21:41.471Z,19.50
2018-04-28T13:24:09.310Z,19.50
2018-04-28T13:26:36.889Z,19.90
2018-04-28T13:29:04.523Z,20.10
2018-04-28T13:31:32.132Z,20.20
2018-04-28T13:33:59.684Z,19.90
2018-04-28T13:36:27.275Z,19.20
2018-04-28T13:38:56.060Z,19.10
2018-04-28T13:41:24.431Z,19.10
2018-04-28T13:43:51.997Z,19.10
2018-04-28T13:46:20.354Z,18.90
2018-04-28T13:48:48.764Z,18.90
2018-04-28T13:51:17.101Z,18.80
2018-04-28T13:53:44.688Z,18.80
2018-04-28T13:56:12.235Z,19.00
2018-04-28T13:58:39.810Z,19.00
2018-04-28T14:01:07.370Z,19.10
2018-04-28T14:03:34.961Z,18.90
2018-04-28T14:06:02.541Z,18.60
2018-04-28T14:08:30.153Z,18.50
2018-04-28T14:10:57.721Z,18.50
2018-04-28T14:13:25.304Z,18.80
2018-04-28T14:15:52.880Z,18.80
2018-04-28T14:18:20.496Z,18.80
2018-04-28T14:20:48.107Z,18.60
2018-04-28T14:23:15.702Z,18.40
2018-04-28T14:25:43.275Z,18.30
2018-04-28T14:28:10.842Z,18.10
2018-04-28T14:30:38.609Z,18.10
2018-04-28T14:33:06.177Z,18.30
2018-04-28T14:35:33.802Z,18.30
2018-04-28T14:38:01.351Z,18.40
2018-04-28T14:40:28.939Z,18.30
2018-04-28T14:42:56.525Z,18.40
2018-04-28T14:45:24.896Z,18.80
2018-04-28T14:47:52.502Z,18.80
2018-04-28T14:50:20.081Z,19.10
2018-04-28T14:52:47.669Z,19.10
2018-04-28T14:55:15.282Z,18.90
2018-04-28T14:57:42.861Z,18.90
2018-04-28T15:00:11.192Z,18.50
2018-04-28T15:02:39.558Z,18.30
2018-04-28T15:05:07.124Z,18.20
2018-04-28T15:07:34.711Z,18.20
2018-04-28T15:10:02.424Z,18.20
2018-04-28T15:12:30.015Z,18.40
2018-04-28T15:14:58.392Z,18.60
2018-04-28T15:17:26.120Z,18.60
2018-04-28T15:19:53.683Z,18.50
2018-04-28T15:22:21.252Z,18.50
2018-04-28T15:24:48.811Z,18.50
2018-04-28T15:27:16.389Z,18.70
2018-04-28T15:29:43.963Z,18.90
2018-04-28T15:32:12.338Z,18.90
2018-04-28T15:34:39.899Z,18.90
2018-04-28T15:37:07.517Z,18.90
2018-04-28T15:39:35.124Z,18.80
2018-04-28T15:42:03.488Z,18.60
2018-04-28T15:44:31.071Z,18.60
2018-04-28T15:46:59.465Z,18.30
2018-04-28T15:49:27.787Z,18.40
2018-04-28T15:51:55.388Z,18.40
2018-04-28T15:54:22.976Z,18.40
2018-04-28T15:56:50.567Z,18.50
2018-04-28T15:59:18.172Z,18.60
2018-04-28T16:01:45.738Z,18.80
2018-04-28T16:04:14.089Z,18.60
2018-04-28T16:06:41.665Z,18.60
2018-04-28T16:09:09.289Z,18.40
2018-04-28T16:11:36.856Z,18.20
2018-04-28T16:14:04.464Z,18.00
2018-04-28T16:16:32.789Z,18.00
2018-04-28T16:19:00.424Z,18.00
2018-04-28T16:21:27.994Z,17.90
2018-04-28T16:23:55.590Z,17.90
2018-04-28T16:26:23.225Z,17.80
2018-04-28T16:28:50.818Z,17.80
2018-04-28T16:31:18.418Z,17.80
2018-04-28T16:33:46.761Z,17.80
2018-04-28T16:36:15.379Z,17.80
2018-04-28T16:38:43.723Z,17.70
2018-04-28T16:41:11.313Z,17.80
2018-04-28T16:43:39.650Z,17.80
2018-04-28T16:46:07.211Z,17.80
2018-04-28T16:48:34.853Z,17.80
2018-04-28T16:51:02.447Z,17.70
2018-04-28T16:53:30.037Z,17.70
2018-04-28T16:55:58.355Z,17.60
2018-04-28T16:58:25.949Z,17.50
2018-04-28T17:00:53.551Z,17.40
2018-04-28T17:03:21.900Z,17.30
2018-04-28T17:05:49.480Z,17.40
2018-04-28T17:08:17.897Z,17.10
2018-04-28T17:10:45.535Z,17.10
2018-04-28T17:13:13.935Z,17.10
2018-04-28T17:15:41.497Z,17.00
2018-04-28T17:18:09.152Z,17.00
2018-04-28T17:20:36.803Z,17.00
2018-04-28T17:23:04.393Z,16.90
2018-04-28T17:25:32.010Z,16.90
2018-04-28T17:28:00.335Z,16.80
2018-04-28T17:30:27.913Z,16.80
2018-04-28T17:32:55.483Z,16.70
2018-04-28T17:35:23.149Z,16.70
2018-04-28T17:37:50.706Z,16.60
2018-04-28T17:40:18.307Z,16.60
2018-04-28T17:42:46.710Z,16.60
2018-04-28T17:45:14.364Z,16.60
2018-04-28T17:47:41.952Z,16.60
2018-04-28T17:50:09.546Z,16.50
2018-04-28T17:52:37.137Z,16.50
2018-04-28T17:55:04.813Z,16.50
2018-04-28T17:57:32.453Z,16.50
2018-04-28T18:00:00.800Z,16.50
2018-04-28T18:02:28.408Z,16.50
2018-04-28T18:04:55.989Z,16.50
2018-04-28T18:10:11.690Z,16.50
2018-04-28T18:12:41.816Z,16.50
2018-04-28T18:15:09.415Z,16.50
2018-04-28T18:17:37.023Z,16.40
2018-04-28T18:20:04.601Z,16.40
2018-04-28T18:22:32.989Z,16.30
2018-04-28T18:25:00.586Z,16.30
2018-04-28T18:27:28.242Z,16.30
2018-04-28T18:29:55.815Z,16.20
2018-04-28T18:32:24.189Z,16.20
2018-04-28T18:34:51.769Z,16.20
2018-04-28T18:37:20.196Z,16.10
2018-04-28T18:39:47.793Z,16.10
2018-04-28T18:42:15.388Z,16.00
2018-04-28T18:44:42.995Z,16.00
2018-04-28T18:47:10.606Z,15.90
2018-04-28T18:49:38.947Z,15.90
2018-04-28T18:52:07.303Z,15.90
2018-04-28T18:54:35.018Z,15.80
2018-04-28T18:57:03.447Z,15.80
2018-04-28T18:59:31.085Z,15.80
2018-04-28T19:01:58.792Z,15.70
2018-04-28T19:04:26.415Z,15.60
2018-04-28T19:06:53.991Z,15.60
2018-04-28T19:09:21.598Z,15.50
2018-04-28T19:11:49.167Z,15.40
2018-04-28T19:14:17.584Z,15.30
2018-04-28T19:16:45.898Z,15.30
2018-04-28T19:19:13.485Z,15.30
2018-04-28T19:21:41.847Z,15.20
2018-04-28T19:24:09.431Z,15.20
2018-04-28T19:26:37.838Z,15.20
2018-04-28T19:29:05.419Z,15.10
2018-04-28T19:31:33.023Z,15.10
2018-04-28T19:34:00.556Z,15.10
2018-04-28T19:36:28.147Z,15.10
2018-04-28T19:38:56.587Z,15.00
2018-04-28T19:41:24.200Z,15.00
2018-04-28T19:43:52.568Z,15.00
2018-04-28T19:46:21.180Z,15.00
2018-04-28T19:48:48.877Z,15.00
2018-04-28T19:51:16.365Z,15.00
2018-04-28T19:53:43.957Z,15.00
2018-04-28T19:56:12.309Z,15.00
2018-04-28T19:58:39.880Z,14.90
2018-04-28T20:01:08.253Z,14.90
2018-04-28T20:03:35.838Z,14.90
2018-04-28T20:06:03.429Z,14.90
2018-04-28T20:08:31.020Z,14.90
2018-04-28T20:10:58.589Z,14.90
2018-04-28T20:13:26.184Z,14.90
2018-04-28T20:15:53.807Z,14.80
2018-04-28T20:18:21.397Z,14.80
2018-04-28T20:20:49.728Z,14.80
2018-04-28T20:23:29.116Z,14.80
2018-04-28T20:25:57.484Z,14.80
2018-04-28T20:28:25.874Z,14.80
2018-04-28T20:30:54.215Z,14.70
2018-04-28T20:33:21.825Z,14.70
2018-04-28T20:35:49.501Z,14.70
2018-04-28T20:38:17.003Z,14.70
2018-04-28T20:40:44.612Z,14.60
2018-04-28T20:43:13.034Z,14.60
2018-04-28T20:45:40.552Z,14.60
2018-04-28T20:48:08.139Z,14.60
2018-04-28T20:50:35.765Z,14.60
2018-04-28T20:53:04.099Z,14.60
2018-04-28T20:55:31.681Z,14.60
2018-04-28T20:57:59.362Z,14.50
2018-04-28T21:00:27.690Z,14.50
2018-04-28T21:02:55.285Z,14.50
2018-04-28T21:05:22.859Z,14.50
2018-04-28T21:07:51.189Z,14.50
2018-04-28T21:10:18.780Z,14.40
2018-04-28T21:12:46.352Z,14.50
2018-04-28T21:15:14.724Z,14.50
2018-04-28T21:17:42.303Z,14.50
2018-04-28T21:20:10.680Z,14.60
2018-04-28T21:22:39.039Z,14.60
2018-04-28T21:25:06.650Z,14.60
2018-04-28T21:27:34.208Z,14.60
2018-04-28T21:30:01.796Z,14.50
2018-04-28T21:32:29.389Z,14.60
2018-04-28T21:34:56.996Z,14.60
2018-04-28T21:37:24.661Z,14.50
2018-04-28T21:39:52.268Z,14.50
2018-04-28T21:42:19.842Z,14.40
2018-04-28T21:44:48.213Z,14.50
2018-04-28T21:47:15.873Z,14.50
2018-04-28T21:49:43.449Z,14.50
2018-04-28T21:52:11.784Z,14.30
2018-04-28T21:54:39.408Z,14.30
2018-04-28T21:57:06.979Z,14.30
2018-04-28T21:59:34.603Z,14.30
2018-04-28T22:02:02.216Z,14.20
2018-04-28T22:04:29.779Z,14.20
2018-04-28T22:06:57.373Z,14.30
2018-04-28T22:09:24.948Z,14.30
2018-04-28T22:11:52.533Z,14.20
2018-04-28T22:14:20.871Z,14.20
2018-04-28T22:16:48.476Z,14.20
2018-04-28T22:19:16.828Z,14.20
2018-04-28T22:21:44.394Z,14.10
2018-04-28T22:24:11.996Z,14.20
2018-04-28T22:26:40.365Z,14.10
2018-04-28T22:29:07.952Z,14.10
2018-04-28T22:31:35.538Z,14.10
2018-04-28T22:34:03.138Z,14.10
2018-04-28T22:36:31.480Z,14.00
2018-04-28T22:38:59.076Z,14.00
2018-04-28T22:41:27.622Z,14.00
2018-04-28T22:43:55.249Z,14.00
2018-04-28T22:46:22.833Z,14.00
2018-04-28T22:48:50.476Z,14.00
2018-04-28T22:51:18.292Z,14.00
2018-04-28T22:53:45.871Z,14.00
2018-04-28T22:56:14.261Z,14.00
2018-04-28T22:58:41.847Z,13.90
2018-04-28T23:01:09.440Z,14.00
2018-04-28T23:03:37.089Z,14.00
2018-04-28T23:06:04.743Z,14.00
2018-04-28T23:08:32.351Z,14.00
2018-04-28T23:11:00.691Z,13.90
2018-04-28T23:13:28.283Z,13.90
2018-04-28T23:15:55.956Z,13.80
2018-04-28T23:18:24.325Z,13.70
2018-04-28T23:20:51.935Z,13.70
2018-04-28T23:23:19.578Z,13.70
2018-04-28T23:25:47.087Z,13.60
2018-04-28T23:28:14.676Z,13.60
2018-04-28T23:30:43.093Z,13.60
2018-04-28T23:33:10.678Z,13.50
2018-04-28T23:35:38.246Z,13.60
2018-04-28T23:38:05.828Z,13.60
2018-04-28T23:40:33.430Z,13.50
2018-04-28T23:43:01.039Z,13.50
2018-04-28T23:45:28.812Z,13.40
2018-04-28T23:47:56.452Z,13.30
2018-04-28T23:50:24.042Z,13.30
2018-04-28T23:52:51.607Z,13.20
2018-04-28T23:55:19.156Z,13.10
2018-04-28T23:57:46.742Z,13.00
